Time;durP1;ratioP1;P1;durP2;ratioP2;P2;SDS_P1;SDS_P2;PMS_P1;PMS_P2;Temp;Humidity;BMP_temperature;BMP_pressure;BME280_temperature;BME280_humidity;BME280_pressure;Samples;Min_cycle;Max_cycle;Signal;HPM_P1;HPM_P2
2021/03/23 00:01:43;;;;;;;16.67;7.22;;;;;;;;;;5002997;28;20051;-86
2021/03/23 00:04:13;;;;;;;20.30;7.72;;;;;;;;;;4985367;28;20499;-86
2021/03/23 00:06:39;;;;;;;13.93;7.63;;;;;;;;;;4968280;28;20045;-86
2021/03/23 00:09:07;;;;;;;13.43;6.90;;;;;;;;;;4993530;28;20050;-85
2021/03/23 00:11:34;;;;;;;11.35;6.65;;;;;;;;;;5006647;28;20610;-86
2021/03/23 00:14:02;;;;;;;14.02;6.90;;;;;;;;;;5000033;28;20046;-87
2021/03/23 00:16:30;;;;;;;10.75;6.28;;;;;;;;;;4999231;28;20047;-87
2021/03/23 00:18:59;;;;;;;12.25;6.90;;;;;;;;;;4983641;28;20053;-86
2021/03/23 00:21:27;;;;;;;15.13;7.25;;;;;;;;;;5004327;28;20046;-86
2021/03/23 00:23:54;;;;;;;13.52;6.95;;;;;;;;;;5005988;28;20077;-84
2021/03/23 00:26:21;;;;;;;14.68;7.38;;;;;;;;;;5004755;28;20414;-85
2021/03/23 00:28:49;;;;;;;12.43;6.03;;;;;;;;;;5000797;28;20054;-85
2021/03/23 00:31:15;;;;;;;10.25;5.97;;;;;;;;;;4985650;28;20050;-87
2021/03/23 00:33:42;;;;;;;14.60;6.78;;;;;;;;;;5004167;28;20046;-85
2021/03/23 00:36:09;;;;;;;10.77;5.95;;;;;;;;;;4983856;28;20130;-88
2021/03/23 00:38:38;;;;;;;9.88;5.47;;;;;;;;;;5002438;28;20038;-87
2021/03/23 00:41:05;;;;;;;10.32;5.60;;;;;;;;;;5002423;28;20068;-88
2021/03/23 00:43:31;;;;;;;11.23;5.80;;;;;;;;;;4987540;28;20043;-87
2021/03/23 00:45:57;;;;;;;12.88;6.85;;;;;;;;;;4983940;28;20050;-85
2021/03/23 00:48:23;;;;;;;14.40;6.97;;;;;;;;;;4998885;28;20533;-87
2021/03/23 00:50:49;;;;;;;12.65;6.13;;;;;;;;;;4995770;28;20102;-85
2021/03/23 00:53:15;;;;;;;11.18;5.97;;;;;;;;;;5012153;28;20053;-85
2021/03/23 00:55:45;;;;;;;12.50;6.60;;;;;;;;;;5023121;28;20448;-85
2021/03/23 00:58:11;;;;;;;12.50;6.90;;;;;;;;;;5014660;28;20050;-86
2021/03/23 01:00:39;;;;;;;16.00;8.07;;;;;;;;;;5021055;28;20113;-86
2021/03/23 01:03:09;;;;;;;11.40;6.13;;;;;;;;;;5021769;28;20057;-85
2021/03/23 01:05:37;;;;;;;15.13;6.53;;;;;;;;;;5006227;28;20053;-85
2021/03/23 01:08:05;;;;;;;15.68;8.38;;;;;;;;;;5022396;28;20081;-85
2021/03/23 01:10:32;;;;;;;18.90;8.73;;;;;;;;;;5021833;28;20050;-84
2021/03/23 01:13:00;;;;;;;16.55;8.88;;;;;;;;;;5021985;28;20552;-85
2021/03/23 01:15:31;;;;;;;21.65;10.43;;;;;;;;;;5015292;28;20069;-85
2021/03/23 01:17:59;;;;;;;20.85;9.45;;;;;;;;;;5015344;28;20046;-86
2021/03/23 01:20:26;;;;;;;14.55;8.48;;;;;;;;;;5004452;28;20129;-84
2021/03/23 01:22:53;;;;;;;25.67;9.98;;;;;;;;;;5001556;28;20110;-86
2021/03/23 01:25:20;;;;;;;15.48;8.48;;;;;;;;;;5002732;28;20038;-85
2021/03/23 01:27:48;;;;;;;17.30;9.02;;;;;;;;;;5002408;28;20055;-85
2021/03/23 01:30:18;;;;;;;15.88;9.52;;;;;;;;;;4991408;28;20062;-86
2021/03/23 01:32:45;;;;;;;17.83;7.22;;;;;;;;;;4994047;28;20073;-86
2021/03/23 01:35:11;;;;;;;15.63;7.90;;;;;;;;;;5003054;28;20058;-85
2021/03/23 01:37:41;;;;;;;13.05;7.32;;;;;;;;;;5000626;28;20058;-85
2021/03/23 01:40:08;;;;;;;16.92;7.47;;;;;;;;;;4986946;28;20050;-85
2021/03/23 01:42:40;;;;;;;17.42;6.65;;;;;;;;;;5002576;28;20042;-86
2021/03/23 01:45:26;;;;;;;14.13;6.78;;;;;;;;;;5002431;28;20047;-85
2021/03/23 01:47:54;;;;;;;14.60;7.43;;;;;;;;;;5000495;28;20698;-87
2021/03/23 01:50:21;;;;;;;14.27;6.07;;;;;;;;;;5001811;28;20046;-86
2021/03/23 01:52:51;;;;;;;14.13;7.93;;;;;;;;;;5003018;28;20056;-86
2021/03/23 01:55:19;;;;;;;14.57;7.18;;;;;;;;;;4991808;28;20051;-86
2021/03/23 01:57:48;;;;;;;14.63;6.80;;;;;;;;;;5014803;28;20046;-86
2021/03/23 02:00:22;;;;;;;12.57;7.00;;;;;;;;;;5017490;28;20056;-87
2021/03/23 02:02:48;;;;;;;13.75;7.20;;;;;;;;;;5046069;22;20060;-80
2021/03/23 02:05:20;;;;;;;13.48;6.57;;;;;;;;;;5060990;28;20080;-81
2021/03/23 02:07:46;;;;;;;10.88;5.97;;;;;;;;;;5061740;28;20045;-81
2021/03/23 02:10:12;;;;;;;15.38;7.07;;;;;;;;;;5060406;28;20045;-80
2021/03/23 02:12:38;;;;;;;14.23;6.90;;;;;;;;;;5060130;28;20052;-80
2021/03/23 02:15:06;;;;;;;14.40;6.78;;;;;;;;;;5059236;28;20053;-79
2021/03/23 02:17:35;;;;;;;11.15;6.47;;;;;;;;;;5059976;28;20045;-82
2021/03/23 02:20:07;;;;;;;16.35;6.70;;;;;;;;;;5060858;28;20041;-81
2021/03/23 02:22:36;;;;;;;12.73;6.90;;;;;;;;;;5061634;28;20051;-85
2021/03/23 02:25:04;;;;;;;18.48;7.93;;;;;;;;;;5059998;28;20075;-80
2021/03/23 02:27:30;;;;;;;13.07;7.20;;;;;;;;;;5059963;28;20049;-80
2021/03/23 02:29:59;;;;;;;14.57;7.68;;;;;;;;;;5059214;28;20052;-80
2021/03/23 02:32:25;;;;;;;15.65;7.80;;;;;;;;;;5059467;28;20048;-82
2021/03/23 02:34:51;;;;;;;17.88;8.82;;;;;;;;;;5057240;28;20136;-80
2021/03/23 02:37:18;;;;;;;17.10;8.02;;;;;;;;;;5054899;28;20044;-80
2021/03/23 02:39:45;;;;;;;13.93;7.07;;;;;;;;;;5054323;28;20453;-81
2021/03/23 02:42:12;;;;;;;13.73;6.82;;;;;;;;;;5057867;28;20064;-80
2021/03/23 02:44:40;;;;;;;12.40;7.05;;;;;;;;;;5052707;28;20091;-81
2021/03/23 02:47:06;;;;;;;12.75;6.28;;;;;;;;;;5048855;28;20052;-79
2021/03/23 02:49:33;;;;;;;15.48;6.75;;;;;;;;;;5053459;28;20051;-78
2021/03/23 02:51:59;;;;;;;13.30;7.50;;;;;;;;;;5047719;28;20088;-80
2021/03/23 02:54:25;;;;;;;16.85;8.15;;;;;;;;;;5051660;28;20053;-79
2021/03/23 02:56:51;;;;;;;11.63;6.50;;;;;;;;;;5050596;28;20041;-81
2021/03/23 02:59:17;;;;;;;14.05;6.70;;;;;;;;;;5050803;28;20417;-80
2021/03/23 03:01:43;;;;;;;15.77;6.65;;;;;;;;;;5052751;28;20044;-79
2021/03/23 03:04:09;;;;;;;13.60;6.78;;;;;;;;;;5053425;28;20394;-80
2021/03/23 03:06:35;;;;;;;14.40;6.63;;;;;;;;;;5046959;28;20045;-80
2021/03/23 03:09:01;;;;;;;14.23;6.72;;;;;;;;;;5050433;28;20042;-79
2021/03/23 03:11:27;;;;;;;15.52;7.68;;;;;;;;;;5057809;28;20539;-79
2021/03/23 03:13:54;;;;;;;14.10;7.82;;;;;;;;;;5060650;28;20071;-81
2021/03/23 03:16:20;;;;;;;13.73;5.97;;;;;;;;;;5053648;28;20390;-82
2021/03/23 03:18:46;;;;;;;14.45;7.63;;;;;;;;;;5062889;28;20147;-80
2021/03/23 03:21:12;;;;;;;17.75;7.68;;;;;;;;;;5056390;28;20052;-82
2021/03/23 03:23:38;;;;;;;14.02;7.25;;;;;;;;;;5064126;28;20073;-80
2021/03/23 03:26:05;;;;;;;14.98;7.25;;;;;;;;;;5055958;28;20048;-81
2021/03/23 03:28:34;;;;;;;16.50;6.90;;;;;;;;;;5064696;28;20044;-82
2021/03/23 03:31:02;;;;;;;12.93;7.40;;;;;;;;;;5058321;28;20052;-81
2021/03/23 03:33:28;;;;;;;18.63;7.55;;;;;;;;;;5056072;28;20044;-80
2021/03/23 03:35:54;;;;;;;18.42;7.53;;;;;;;;;;5061442;28;20049;-80
2021/03/23 03:38:22;;;;;;;16.45;8.23;;;;;;;;;;5057176;28;20100;-80
2021/03/23 03:40:51;;;;;;;18.55;7.05;;;;;;;;;;5058552;28;20047;-80
2021/03/23 03:43:18;;;;;;;15.43;7.35;;;;;;;;;;5056561;28;20079;-80
2021/03/23 03:45:44;;;;;;;17.83;8.00;;;;;;;;;;5054873;28;20440;-78
2021/03/23 03:48:12;;;;;;;14.48;7.57;;;;;;;;;;5047808;28;20049;-78
2021/03/23 03:50:37;;;;;;;22.00;10.50;;;;;;;;;;5054287;28;20048;-78
2021/03/23 03:53:06;;;;;;;19.23;9.55;;;;;;;;;;5058557;28;20099;-78
2021/03/23 03:55:33;;;;;;;17.02;9.27;;;;;;;;;;5062046;28;20049;-80
2021/03/23 03:57:59;;;;;;;32.22;16.23;;;;;;;;;;5054772;28;20045;-80
2021/03/23 04:00:28;;;;;;;24.95;13.27;;;;;;;;;;5059784;28;20045;-81
2021/03/23 04:02:54;;;;;;;20.00;10.13;;;;;;;;;;5059276;28;20417;-80
2021/03/23 04:05:23;;;;;;;18.05;9.70;;;;;;;;;;5054797;28;20049;-81
2021/03/23 04:07:49;;;;;;;17.73;8.82;;;;;;;;;;5050953;28;20099;-84
2021/03/23 04:10:16;;;;;;;25.70;9.95;;;;;;;;;;5055795;28;20041;-79
2021/03/23 04:12:42;;;;;;;21.77;9.40;;;;;;;;;;5054196;28;20057;-80
2021/03/23 04:15:09;;;;;;;18.50;9.00;;;;;;;;;;5053788;28;20132;-80
2021/03/23 04:17:35;;;;;;;15.02;8.23;;;;;;;;;;5049640;28;20048;-79
2021/03/23 04:20:01;;;;;;;20.58;9.90;;;;;;;;;;5056027;28;20129;-78
2021/03/23 04:22:28;;;;;;;16.20;8.05;;;;;;;;;;5061647;28;20053;-79
2021/03/23 04:24:54;;;;;;;19.55;9.98;;;;;;;;;;5051381;28;20088;-79
2021/03/23 04:27:20;;;;;;;23.02;10.60;;;;;;;;;;5059681;28;20053;-80
2021/03/23 04:29:46;;;;;;;20.77;9.70;;;;;;;;;;5056359;28;20102;-78
2021/03/23 04:32:12;;;;;;;14.77;7.97;;;;;;;;;;5050040;28;20077;-81
2021/03/23 04:34:38;;;;;;;21.20;9.88;;;;;;;;;;5055117;28;20385;-81
2021/03/23 04:37:05;;;;;;;17.92;9.23;;;;;;;;;;5057078;28;20045;-82
2021/03/23 04:39:31;;;;;;;15.13;8.38;;;;;;;;;;5052389;28;20040;-81
2021/03/23 04:41:57;;;;;;;19.27;9.15;;;;;;;;;;5049924;28;20049;-79
2021/03/23 04:44:23;;;;;;;17.58;8.77;;;;;;;;;;5056153;28;20045;-80
2021/03/23 04:46:50;;;;;;;16.42;8.82;;;;;;;;;;5052886;28;20507;-80
2021/03/23 04:49:15;;;;;;;18.45;9.60;;;;;;;;;;5060794;28;20047;-79
2021/03/23 04:51:43;;;;;;;16.52;8.68;;;;;;;;;;5059388;28;20044;-80
2021/03/23 04:54:10;;;;;;;17.90;9.15;;;;;;;;;;5053717;28;20498;-79
2021/03/23 04:56:38;;;;;;;22.88;9.63;;;;;;;;;;5067022;28;20090;-78
2021/03/23 04:59:04;;;;;;;21.20;10.18;;;;;;;;;;5054151;28;20041;-78
2021/03/23 05:01:30;;;;;;;23.02;11.45;;;;;;;;;;5058602;28;20060;-79
2021/03/23 05:03:59;;;;;;;23.13;11.05;;;;;;;;;;5064231;28;20642;-80
2021/03/23 05:06:25;;;;;;;20.85;10.35;;;;;;;;;;5056077;28;20053;-81
2021/03/23 05:08:51;;;;;;;20.05;10.25;;;;;;;;;;5054182;28;20041;-79
2021/03/23 05:11:20;;;;;;;24.02;10.05;;;;;;;;;;5060282;28;20042;-80
2021/03/23 05:13:47;;;;;;;22.20;9.65;;;;;;;;;;5056120;28;20101;-77
2021/03/23 05:16:13;;;;;;;21.02;9.50;;;;;;;;;;5053791;28;20051;-81
2021/03/23 05:18:39;;;;;;;19.70;9.95;;;;;;;;;;5057034;28;20092;-80
2021/03/23 05:21:06;;;;;;;21.67;10.20;;;;;;;;;;5051879;28;20053;-82
2021/03/23 05:23:32;;;;;;;17.77;8.77;;;;;;;;;;5054967;28;20036;-79
2021/03/23 05:25:58;;;;;;;20.00;9.43;;;;;;;;;;5054097;28;20041;-80
2021/03/23 05:28:24;;;;;;;18.95;9.15;;;;;;;;;;5055185;28;20516;-82
2021/03/23 05:30:51;;;;;;;24.90;10.27;;;;;;;;;;5050090;28;20036;-79
2021/03/23 05:33:18;;;;;;;23.35;9.80;;;;;;;;;;5060360;28;20111;-83
2021/03/23 05:35:44;;;;;;;19.70;9.88;;;;;;;;;;5056443;28;20132;-80
2021/03/23 05:38:11;;;;;;;25.63;11.23;;;;;;;;;;5047447;28;20045;-81
2021/03/23 05:40:42;;;;;;;24.83;10.75;;;;;;;;;;5048541;28;20037;-79
2021/03/23 05:43:37;;;;;;;20.35;10.82;;;;;;;;;;5048500;28;20142;-80
2021/03/23 05:46:13;;;;;;;22.60;11.30;;;;;;;;;;5051560;28;20060;-80
2021/03/23 05:48:50;;;;;;;23.33;12.20;;;;;;;;;;5053732;28;20060;-81
2021/03/23 05:51:22;;;;;;;26.90;15.00;;;;;;;;;;5045895;28;20488;-79
2021/03/23 05:53:51;;;;;;;23.10;11.45;;;;;;;;;;5045103;28;20041;-82
2021/03/23 05:56:17;;;;;;;24.80;12.82;;;;;;;;;;5048346;28;20060;-82
2021/03/23 05:58:48;;;;;;;25.23;13.30;;;;;;;;;;5054215;28;20041;-83
2021/03/23 06:01:19;;;;;;;24.23;12.50;;;;;;;;;;5050987;28;20049;-80
2021/03/23 06:03:48;;;;;;;26.25;12.43;;;;;;;;;;5054966;28;20050;-81
2021/03/23 06:06:20;;;;;;;28.95;14.38;;;;;;;;;;5054126;28;20060;-81
2021/03/23 06:08:49;;;;;;;21.90;13.02;;;;;;;;;;5053663;28;20199;-82
2021/03/23 06:11:54;;;;;;;26.85;13.82;;;;;;;;;;5053068;28;20051;-83
2021/03/23 06:14:30;;;;;;;22.75;12.02;;;;;;;;;;5042909;28;20509;-82
2021/03/23 06:17:09;;;;;;;23.70;13.25;;;;;;;;;;5051384;28;20079;-82
2021/03/23 06:19:42;;;;;;;27.35;13.18;;;;;;;;;;5046181;28;20042;-81
2021/03/23 06:22:16;;;;;;;26.92;12.73;;;;;;;;;;5052424;28;20076;-83
2021/03/23 06:24:46;;;;;;;25.33;11.82;;;;;;;;;;5055389;28;20052;-83
2021/03/23 06:27:18;;;;;;;31.77;13.65;;;;;;;;;;5053256;28;20049;-81
2021/03/23 06:30:12;;;;;;;24.15;12.02;;;;;;;;;;5051493;28;20049;-82
2021/03/23 06:32:43;;;;;;;23.83;12.40;;;;;;;;;;5051118;28;20048;-82
2021/03/23 06:35:12;;;;;;;29.55;13.65;;;;;;;;;;5045735;28;20095;-84
2021/03/23 06:37:40;;;;;;;24.00;12.77;;;;;;;;;;5049987;28;20045;-84
2021/03/23 06:40:11;;;;;;;21.60;12.05;;;;;;;;;;5060458;28;20127;-81
2021/03/23 06:42:38;;;;;;;20.63;11.55;;;;;;;;;;5051307;28;20045;-81
2021/03/23 06:45:18;;;;;;;20.55;12.10;;;;;;;;;;5054008;28;20109;-81
2021/03/23 06:47:45;;;;;;;27.83;12.98;;;;;;;;;;5042648;28;20045;-81
2021/03/23 06:50:16;;;;;;;28.55;14.40;;;;;;;;;;5047999;28;20497;-81
2021/03/23 06:52:42;;;;;;;25.02;13.63;;;;;;;;;;5062378;28;20048;-80
2021/03/23 06:55:48;;;;;;;23.08;13.15;;;;;;;;;;5045476;28;20069;-81
2021/03/23 06:58:31;;;;;;;28.10;14.48;;;;;;;;;;5058961;28;20417;-83
2021/03/23 07:01:18;;;;;;;26.70;13.43;;;;;;;;;;5046400;28;20037;-80
2021/03/23 07:03:46;;;;;;;24.13;13.13;;;;;;;;;;5048074;28;20076;-84
2021/03/23 07:06:27;;;;;;;30.83;15.18;;;;;;;;;;5065163;28;20470;-81
2021/03/23 07:09:15;;;;;;;26.08;15.52;;;;;;;;;;5048527;28;20051;-82
2021/03/23 07:11:56;;;;;;;26.77;14.15;;;;;;;;;;5060917;28;20120;-81
2021/03/23 07:14:28;;;;;;;28.20;13.70;;;;;;;;;;5056496;28;20045;-81
2021/03/23 07:17:12;;;;;;;27.45;13.80;;;;;;;;;;5048714;28;20041;-81
2021/03/23 07:19:44;;;;;;;29.88;15.35;;;;;;;;;;5054755;28;20188;-82
2021/03/23 07:22:16;;;;;;;36.85;20.02;;;;;;;;;;5061641;28;20055;-81
2021/03/23 07:24:49;;;;;;;29.58;14.38;;;;;;;;;;5055831;28;20036;-81
2021/03/23 07:27:17;;;;;;;28.65;15.65;;;;;;;;;;5056329;28;20053;-82
2021/03/23 07:29:43;;;;;;;28.52;14.65;;;;;;;;;;5057304;28;20358;-85
2021/03/23 07:32:15;;;;;;;25.27;14.98;;;;;;;;;;5044475;28;20124;-80
2021/03/23 07:34:52;;;;;;;26.38;13.73;;;;;;;;;;5058009;28;20071;-81
2021/03/23 07:37:19;;;;;;;26.70;14.13;;;;;;;;;;5055606;28;20053;-80
2021/03/23 07:39:49;;;;;;;28.20;14.65;;;;;;;;;;5055318;28;20045;-80
2021/03/23 07:42:26;;;;;;;36.35;15.32;;;;;;;;;;5058152;28;20045;-81
2021/03/23 07:44:54;;;;;;;27.83;15.55;;;;;;;;;;5044275;28;20038;-80
2021/03/23 07:47:22;;;;;;;24.98;14.13;;;;;;;;;;5051076;28;20042;-80
2021/03/23 07:49:52;;;;;;;29.92;16.05;;;;;;;;;;5057552;28;20666;-80
2021/03/23 07:52:23;;;;;;;28.90;14.98;;;;;;;;;;5074663;28;20055;-80
2021/03/23 07:54:50;;;;;;;25.30;13.93;;;;;;;;;;5047589;28;20052;-81
2021/03/23 07:57:40;;;;;;;29.70;15.30;;;;;;;;;;5055151;28;20095;-80
2021/03/23 08:00:40;;;;;;;27.25;13.98;;;;;;;;;;5074346;28;20097;-81
2021/03/23 08:06:58;;;;;;;69.70;19.88;;;;;;;;;;4981480;28;20070;-79
2021/03/23 08:09:42;;;;;;;48.67;17.52;;;;;;;;;;4981468;28;20050;-79
2021/03/23 08:12:32;;;;;;;49.33;17.92;;;;;;;;;;4986322;28;20051;-81
2021/03/23 08:15:13;;;;;;;44.83;17.98;;;;;;;;;;4993844;28;20077;-81
2021/03/23 08:18:10;;;;;;;38.67;15.98;;;;;;;;;;4991722;28;20117;-81
2021/03/23 08:20:40;;;;;;;;;;;;;;;;;;4992140;28;20073;-80
2021/03/23 08:23:16;;;;;;;29.48;14.80;;;;;;;;;;4993570;28;20276;-79
2021/03/23 08:25:45;;;;;;;29.00;14.52;;;;;;;;;;5049518;28;20042;-78
2021/03/23 08:28:36;;;;;;;28.88;15.98;;;;;;;;;;5056013;28;20076;-81
2021/03/23 08:31:18;;;;;;;32.45;17.83;;;;;;;;;;5043529;28;20148;-81
2021/03/23 08:33:58;;;;;;;29.77;17.02;;;;;;;;;;5041149;28;20425;-79
2021/03/23 08:36:35;;;;;;;29.20;15.25;;;;;;;;;;5054201;28;20045;-80
2021/03/23 08:39:15;;;;;;;23.75;15.57;;;;;;;;;;5061572;28;20075;-81
2021/03/23 08:41:48;;;;;;;26.52;15.27;;;;;;;;;;5060491;28;20572;-81
2021/03/23 08:44:25;;;;;;;28.88;16.25;;;;;;;;;;5054644;28;20045;-86
2021/03/23 08:46:52;;;;;;;26.40;15.25;;;;;;;;;;5061116;28;20094;-80
2021/03/23 08:49:19;;;;;;;29.55;16.25;;;;;;;;;;5049961;28;20049;-80
2021/03/23 08:51:48;;;;;;;29.10;16.60;;;;;;;;;;5053787;28;20052;-82
2021/03/23 08:54:44;;;;;;;27.20;15.95;;;;;;;;;;5053562;28;20055;-83
2021/03/23 08:57:11;;;;;;;31.65;16.30;;;;;;;;;;5050104;28;20071;-79
2021/03/23 08:59:54;;;;;;;28.73;17.08;;;;;;;;;;5056735;28;20104;-80
2021/03/23 09:02:44;;;;;;;30.70;16.05;;;;;;;;;;5060822;28;20056;-82
2021/03/23 09:05:37;;;;;;;31.70;16.63;;;;;;;;;;5045194;28;20051;-78
2021/03/23 09:08:17;;;;;;;32.35;16.73;;;;;;;;;;5047889;28;20103;-80
2021/03/23 09:10:49;;;;;;;32.13;18.70;;;;;;;;;;5057681;28;20048;-80
2021/03/23 09:13:22;;;;;;;32.22;16.92;;;;;;;;;;5062257;28;20041;-79
2021/03/23 09:15:53;;;;;;;30.70;17.35;;;;;;;;;;5058837;28;20297;-81
2021/03/23 09:18:26;;;;;;;28.77;16.73;;;;;;;;;;5063604;28;20046;-81
2021/03/23 09:21:06;;;;;;;31.48;17.30;;;;;;;;;;5049463;28;20045;-79
2021/03/23 09:23:46;;;;;;;32.75;18.02;;;;;;;;;;5065411;28;20041;-78
2021/03/23 09:26:45;;;;;;;32.97;17.38;;;;;;;;;;5053933;28;20045;-78
2021/03/23 09:29:36;;;;;;;35.92;18.40;;;;;;;;;;5012496;28;20440;-79
2021/03/23 09:32:04;;;;;;;33.95;17.98;;;;;;;;;;5052859;28;20049;-78
2021/03/23 09:35:22;;;;;;;34.20;18.15;;;;;;;;;;5055359;28;20044;-79
2021/03/23 09:37:51;;;;;;;29.85;17.58;;;;;;;;;;5064631;28;20040;-80
2021/03/23 09:40:54;;;;;;;34.42;18.20;;;;;;;;;;5052797;28;20041;-81
2021/03/23 09:43:26;;;;;;;31.95;18.05;;;;;;;;;;5064471;28;20040;-80
2021/03/23 09:46:02;;;;;;;31.33;17.75;;;;;;;;;;5046111;28;20574;-79
2021/03/23 09:48:47;;;;;;;35.78;18.92;;;;;;;;;;5061389;28;20149;-80
2021/03/23 09:51:26;;;;;;;30.85;17.60;;;;;;;;;;5074967;28;20047;-79
2021/03/23 09:53:53;;;;;;;35.38;19.10;;;;;;;;;;5048611;28;20053;-81
2021/03/23 09:56:23;;;;;;;30.65;17.48;;;;;;;;;;5053169;28;20045;-86
2021/03/23 09:58:57;;;;;;;28.10;17.55;;;;;;;;;;5050052;28;20045;-80
2021/03/23 10:01:24;;;;;;;32.63;17.27;;;;;;;;;;5062892;28;20056;-82
2021/03/23 10:03:52;;;;;;;33.95;18.05;;;;;;;;;;5063411;28;20059;-81
2021/03/23 10:06:20;;;;;;;32.53;17.63;;;;;;;;;;5051965;28;20045;-81
2021/03/23 10:08:55;;;;;;;27.55;16.67;;;;;;;;;;5056311;28;20044;-83
2021/03/23 10:11:22;;;;;;;33.92;18.23;;;;;;;;;;5056659;28;20049;-81
2021/03/23 10:13:53;;;;;;;27.23;16.75;;;;;;;;;;5055821;28;20178;-82
2021/03/23 10:16:24;;;;;;;26.05;17.23;;;;;;;;;;5053253;28;20041;-81
2021/03/23 10:18:50;;;;;;;31.92;18.13;;;;;;;;;;5045662;28;20486;-80
2021/03/23 10:21:17;;;;;;;25.63;16.55;;;;;;;;;;5050162;28;20046;-80
2021/03/23 10:23:47;;;;;;;29.30;17.92;;;;;;;;;;5053504;28;20042;-84
2021/03/23 10:26:13;;;;;;;31.48;16.85;;;;;;;;;;5060441;28;20045;-81
2021/03/23 10:28:47;;;;;;;25.63;16.05;;;;;;;;;;5068739;28;20052;-82
2021/03/23 10:31:15;;;;;;;28.33;16.25;;;;;;;;;;5053733;28;20108;-79
2021/03/23 10:33:42;;;;;;;27.92;16.38;;;;;;;;;;5054824;28;20098;-79
2021/03/23 10:36:09;;;;;;;26.20;15.93;;;;;;;;;;5048262;28;20064;-78
2021/03/23 10:38:42;;;;;;;26.02;15.63;;;;;;;;;;5048748;28;20048;-79
2021/03/23 10:41:41;;;;;;;32.30;16.63;;;;;;;;;;5045075;28;20049;-83
2021/03/23 10:44:20;;;;;;;25.25;14.95;;;;;;;;;;4972556;28;20051;-78
2021/03/23 10:46:48;;;;;;;25.55;14.13;;;;;;;;;;4967090;28;20427;-80
2021/03/23 10:49:30;;;;;;;27.55;17.23;;;;;;;;;;5020638;28;20122;-82
2021/03/23 10:51:58;;;;;;;21.58;14.25;;;;;;;;;;5052232;28;20049;-79
2021/03/23 10:54:27;;;;;;;25.02;15.32;;;;;;;;;;5057876;28;20128;-80
2021/03/23 10:56:55;;;;;;;24.00;14.50;;;;;;;;;;5050163;28;20052;-83
2021/03/23 10:59:42;;;;;;;23.65;14.05;;;;;;;;;;5053051;28;20044;-81
2021/03/23 11:02:30;;;;;;;23.05;14.52;;;;;;;;;;5055939;28;20045;-80
2021/03/23 11:04:59;;;;;;;22.65;12.98;;;;;;;;;;5046929;28;20063;-80
2021/03/23 11:07:27;;;;;;;21.05;12.88;;;;;;;;;;5057286;28;20049;-78
2021/03/23 11:09:57;;;;;;;22.05;12.60;;;;;;;;;;5056078;28;20072;-79
2021/03/23 11:12:23;;;;;;;19.90;12.82;;;;;;;;;;5054754;28;20056;-80
2021/03/23 11:14:49;;;;;;;19.13;12.68;;;;;;;;;;5055752;28;20476;-82
2021/03/23 11:17:19;;;;;;;17.58;11.82;;;;;;;;;;5047849;28;20460;-80
2021/03/23 11:19:51;;;;;;;19.73;12.52;;;;;;;;;;5055350;28;20041;-79
2021/03/23 11:22:20;;;;;;;19.40;12.07;;;;;;;;;;5059374;28;20069;-80
2021/03/23 11:24:46;;;;;;;30.80;14.82;;;;;;;;;;5052578;28;20042;-82
2021/03/23 11:27:12;;;;;;;23.60;13.52;;;;;;;;;;5046979;28;20489;-79
2021/03/23 11:29:38;;;;;;;20.52;11.95;;;;;;;;;;5053030;28;20059;-86
2021/03/23 11:32:05;;;;;;;26.58;14.35;;;;;;;;;;5053058;28;20045;-79
2021/03/23 11:34:34;;;;;;;27.08;15.02;;;;;;;;;;5066072;28;20052;-81
2021/03/23 11:37:01;;;;;;;23.02;11.85;;;;;;;;;;5056004;28;20052;-79
2021/03/23 11:39:27;;;;;;;20.33;11.32;;;;;;;;;;5043002;28;20049;-80
2021/03/23 11:42:05;;;;;;;22.23;12.70;;;;;;;;;;5042475;28;20486;-84
2021/03/23 11:44:34;;;;;;;21.10;12.05;;;;;;;;;;5060833;28;20041;-79
2021/03/23 11:47:10;;;;;;;19.33;11.63;;;;;;;;;;5061998;28;20054;-80
2021/03/23 11:49:45;;;;;;;24.48;12.32;;;;;;;;;;5058367;28;20413;-80
2021/03/23 11:52:14;;;;;;;18.27;11.55;;;;;;;;;;5065396;28;20048;-79
2021/03/23 11:54:40;;;;;;;21.80;12.20;;;;;;;;;;5079790;28;20048;-80
2021/03/23 11:57:07;;;;;;;19.00;11.52;;;;;;;;;;5060329;28;20091;-81
2021/03/23 11:59:34;;;;;;;20.30;10.23;;;;;;;;;;5062935;28;20473;-79
2021/03/23 12:02:01;;;;;;;18.83;10.68;;;;;;;;;;5058144;28;20042;-81
2021/03/23 12:04:27;;;;;;;17.05;9.80;;;;;;;;;;5057794;28;20076;-81
2021/03/23 12:06:57;;;;;;;17.35;9.90;;;;;;;;;;5045014;28;20056;-79
2021/03/23 12:09:27;;;;;;;14.85;9.43;;;;;;;;;;5066238;28;20041;-80
2021/03/23 12:11:57;;;;;;;17.48;10.07;;;;;;;;;;5059087;28;20037;-83
2021/03/23 12:14:31;;;;;;;17.65;9.65;;;;;;;;;;5048578;28;20045;-83
2021/03/23 12:17:02;;;;;;;18.52;10.00;;;;;;;;;;5071673;28;20079;-80
2021/03/23 12:19:32;;;;;;;17.45;10.32;;;;;;;;;;5048592;28;20056;-80
2021/03/23 12:21:58;;;;;;;17.15;9.85;;;;;;;;;;5059635;28;20046;-80
2021/03/23 12:24:26;;;;;;;17.98;10.23;;;;;;;;;;5067565;28;20117;-81
2021/03/23 12:26:52;;;;;;;15.63;9.73;;;;;;;;;;5065267;28;20103;-81
2021/03/23 12:29:20;;;;;;;15.27;9.82;;;;;;;;;;5074134;28;20080;-80
2021/03/23 12:31:46;;;;;;;14.68;9.77;;;;;;;;;;5051612;28;20056;-80
2021/03/23 12:34:13;;;;;;;15.15;9.40;;;;;;;;;;5058243;28;20493;-79
2021/03/23 12:36:41;;;;;;;15.43;9.68;;;;;;;;;;5041373;28;20048;-85
2021/03/23 12:39:09;;;;;;;16.60;9.40;;;;;;;;;;5065298;28;20048;-79
2021/03/23 12:41:36;;;;;;;15.00;8.90;;;;;;;;;;5044645;28;20049;-81
2021/03/23 12:44:03;;;;;;;13.45;8.82;;;;;;;;;;5065429;28;20067;-83
2021/03/23 12:46:30;;;;;;;16.00;10.35;;;;;;;;;;5051126;28;20097;-82
2021/03/23 12:48:56;;;;;;;18.02;8.93;;;;;;;;;;5060007;28;20068;-81
2021/03/23 12:51:24;;;;;;;16.55;9.27;;;;;;;;;;5062941;28;20041;-82
2021/03/23 12:53:51;;;;;;;13.00;8.25;;;;;;;;;;5052766;28;20067;-79
2021/03/23 12:56:19;;;;;;;14.60;8.55;;;;;;;;;;5056436;28;20049;-79
2021/03/23 12:58:46;;;;;;;14.07;8.90;;;;;;;;;;5059945;28;20523;-79
2021/03/23 13:01:12;;;;;;;14.60;9.13;;;;;;;;;;5061603;28;20089;-79
2021/03/23 13:03:38;;;;;;;15.30;8.80;;;;;;;;;;5061800;28;20047;-81
2021/03/23 13:06:06;;;;;;;13.20;8.35;;;;;;;;;;5057287;28;20094;-80
2021/03/23 13:08:34;;;;;;;15.40;9.35;;;;;;;;;;5054863;28;20055;-80
2021/03/23 13:11:02;;;;;;;15.75;9.90;;;;;;;;;;5064264;28;20071;-80
2021/03/23 13:13:30;;;;;;;17.05;9.10;;;;;;;;;;5051160;28;20513;-85
2021/03/23 13:15:57;;;;;;;16.15;9.20;;;;;;;;;;5056362;28;20041;-78
2021/03/23 13:18:25;;;;;;;17.27;9.90;;;;;;;;;;5059765;28;20045;-82
2021/03/23 13:20:51;;;;;;;14.30;8.77;;;;;;;;;;5056205;28;20074;-81
2021/03/23 13:23:23;;;;;;;14.52;8.68;;;;;;;;;;5049881;28;20056;-78
2021/03/23 13:25:54;;;;;;;15.25;9.60;;;;;;;;;;5050989;28;20324;-84
2021/03/23 13:28:37;;;;;;;23.42;11.27;;;;;;;;;;5054979;28;20045;-79
2021/03/23 13:31:04;;;;;;;15.40;9.88;;;;;;;;;;5053968;28;20049;-80
2021/03/23 13:33:35;;;;;;;18.33;10.25;;;;;;;;;;5064311;28;20419;-81
2021/03/23 13:36:01;;;;;;;13.45;8.95;;;;;;;;;;5060137;28;20041;-85
2021/03/23 13:38:29;;;;;;;18.25;9.90;;;;;;;;;;5061750;28;20108;-82
2021/03/23 13:40:55;;;;;;;16.23;9.85;;;;;;;;;;5052850;28;20427;-81
2021/03/23 13:43:21;;;;;;;14.55;9.02;;;;;;;;;;5057797;28;20049;-81
2021/03/23 13:45:51;;;;;;;17.65;9.65;;;;;;;;;;5053208;28;20056;-83
2021/03/23 13:48:22;;;;;;;15.43;7.55;;;;;;;;;;5061559;28;20089;-80
2021/03/23 13:50:48;;;;;;;15.48;9.13;;;;;;;;;;5049146;28;20071;-82
2021/03/23 13:53:18;;;;;;;16.02;8.10;;;;;;;;;;5058685;28;20056;-81
2021/03/23 13:55:45;;;;;;;16.35;8.50;;;;;;;;;;5057935;28;20045;-84
2021/03/23 13:58:12;;;;;;;14.77;8.38;;;;;;;;;;5059502;28;20045;-80
2021/03/23 14:00:40;;;;;;;17.90;7.95;;;;;;;;;;5058231;28;20070;-82
2021/03/23 14:03:06;;;;;;;17.33;8.85;;;;;;;;;;5061460;28;20052;-82
2021/03/23 14:05:34;;;;;;;14.68;9.18;;;;;;;;;;5059978;28;20046;-80
2021/03/23 14:08:01;;;;;;;13.20;8.18;;;;;;;;;;5057841;28;20091;-84
2021/03/23 14:10:29;;;;;;;11.98;7.97;;;;;;;;;;5049195;28;20057;-80
2021/03/23 14:12:57;;;;;;;14.77;8.32;;;;;;;;;;5559228;23;20085;-82
2021/03/23 14:15:25;;;;;;;13.77;8.43;;;;;;;;;;5051893;28;20080;-79
2021/03/23 14:17:51;;;;;;;12.50;7.60;;;;;;;;;;5051562;28;20056;-78
2021/03/23 14:20:20;;;;;;;13.52;7.78;;;;;;;;;;5053251;28;20037;-82
2021/03/23 14:22:48;;;;;;;12.88;7.88;;;;;;;;;;5048453;28;20052;-79
2021/03/23 14:25:27;;;;;;;16.70;9.30;;;;;;;;;;5053490;28;20045;-79
2021/03/23 14:27:54;;;;;;;16.05;9.35;;;;;;;;;;5052699;28;20042;-84
2021/03/23 14:30:23;;;;;;;15.20;8.10;;;;;;;;;;5052582;28;20493;-79
2021/03/23 14:32:50;;;;;;;13.05;8.00;;;;;;;;;;5056101;28;20041;-80
2021/03/23 14:35:17;;;;;;;13.35;7.53;;;;;;;;;;5047402;28;20044;-80
2021/03/23 14:37:45;;;;;;;14.93;7.68;;;;;;;;;;5049052;28;20045;-82
2021/03/23 14:40:15;;;;;;;12.82;7.97;;;;;;;;;;5054416;28;20045;-78
2021/03/23 14:42:41;;;;;;;12.35;7.75;;;;;;;;;;5051627;28;20037;-79
2021/03/23 14:45:10;;;;;;;11.70;7.75;;;;;;;;;;5056256;28;20064;-81
2021/03/23 14:47:36;;;;;;;11.13;6.57;;;;;;;;;;5056396;28;20046;-78